Time;durP1;ratioP1;P1;durP2;ratioP2;P2;SDS_P1;SDS_P2;PMS_P1;PMS_P2;Temp;Humidity;BMP_temperature;BMP_pressure;BME280_temperature;BME280_humidity;BME280_pressure;Samples;Min_cycle;Max_cycle;Signal;HPM_P1;HPM_P2
2023/11/14 00:00:54;;;;;;;17.50;3.65;;;;;;;13.52;84.45;99462.63;4971882;28;98681;-76
2023/11/14 00:03:22;;;;;;;16.95;2.22;;;;;;;13.75;83.15;99461.91;4971477;28;96969;-76
2023/11/14 00:05:49;;;;;;;22.38;3.03;;;;;;;13.83;82.49;99467.53;4974518;28;97786;-76
2023/11/14 00:08:15;;;;;;;14.95;2.35;;;;;;;13.70;83.01;99482.59;4983531;28;101021;-76
2023/11/14 00:10:42;;;;;;;10.88;2.85;;;;;;;14.05;81.39;99474.84;4970847;28;96974;-77
2023/11/14 00:13:08;;;;;;;17.85;2.90;;;;;;;14.08;80.55;99477.31;4975362;28;97015;-77
2023/11/14 00:15:34;;;;;;;17.73;2.97;;;;;;;13.77;81.58;99470.63;4965626;28;101400;-75
2023/11/14 00:18:01;;;;;;;12.40;1.70;;;;;;;13.57;82.49;99479.09;4971545;28;98091;-74
2023/11/14 00:20:29;;;;;;;17.58;2.65;;;;;;;13.80;81.76;99467.72;4976314;28;96782;-74
2023/11/14 00:22:56;;;;;;;18.65;2.47;;;;;;;13.74;81.35;99472.63;4968599;28;96956;-75
2023/11/14 00:25:23;;;;;;;13.43;2.65;;;;;;;13.68;82.15;99471.22;4964205;28;101899;-77
2023/11/14 00:27:50;;;;;;;16.77;2.97;;;;;;;13.72;81.66;99475.38;4967903;28;101751;-77
2023/11/14 00:30:17;;;;;;;19.35;3.17;;;;;;;13.55;81.93;99489.78;4967567;28;99429;-75
2023/11/14 00:32:44;;;;;;;15.95;2.08;;;;;;;13.42;82.10;99482.75;4963883;28;96975;-76
2023/11/14 00:35:11;;;;;;;18.30;2.83;;;;;;;13.35;83.07;99486.78;4975627;28;97616;-78
2023/11/14 00:37:39;;;;;;;20.95;2.70;;;;;;;13.29;83.41;99489.84;4977293;28;97761;-77
2023/11/14 00:40:06;;;;;;;14.70;2.33;;;;;;;13.37;82.97;99491.03;4962641;28;97386;-78
2023/11/14 00:42:33;;;;;;;16.50;2.63;;;;;;;13.41;82.43;99502.28;4966597;28;98465;-78
2023/11/14 00:45:00;;;;;;;13.23;2.47;;;;;;;13.13;83.50;99497.94;4966324;28;99998;-78
2023/11/14 00:47:26;;;;;;;17.88;2.90;;;;;;;13.11;83.83;99498.03;4965532;28;100491;-78
2023/11/14 00:49:53;;;;;;;23.00;3.13;;;;;;;13.05;83.63;99501.09;4962878;28;98181;-78
2023/11/14 00:52:19;;;;;;;12.93;2.35;;;;;;;13.30;82.45;99488.88;4966978;28;100225;-77
2023/11/14 00:54:47;;;;;;;15.32;3.00;;;;;;;13.42;81.44;99498.69;4965777;28;99799;-78
2023/11/14 00:57:15;;;;;;;19.95;2.70;;;;;;;13.20;82.09;99503.69;4968713;28;101727;-78
2023/11/14 00:59:41;;;;;;;13.85;2.53;;;;;;;13.13;82.76;99506.75;4972423;28;97593;-78
2023/11/14 01:02:08;;;;;;;22.35;3.92;;;;;;;13.21;82.16;99500.09;4966519;28;98859;-78
2023/11/14 01:04:37;;;;;;;17.23;2.60;;;;;;;13.26;81.77;99505.97;4969939;28;99015;-78
2023/11/14 01:07:04;;;;;;;12.48;2.75;;;;;;;13.20;81.84;99506.34;4974697;28;99018;-78
2023/11/14 01:09:30;;;;;;;19.02;3.03;;;;;;;13.13;82.06;99504.09;4976880;28;97630;-78
2023/11/14 01:11:58;;;;;;;12.82;2.10;;;;;;;13.25;81.59;99512.22;4973518;28;97522;-76
2023/11/14 01:14:25;;;;;;;18.60;2.72;;;;;;;13.20;81.56;99509.84;4965291;28;98732;-75
2023/11/14 01:16:52;;;;;;;18.85;2.97;;;;;;;13.11;82.30;99511.28;4967398;28;98780;-78
2023/11/14 01:19:18;;;;;;;17.80;2.50;;;;;;;13.23;81.45;99517.63;4969788;28;97069;-76
2023/11/14 01:21:45;;;;;;;25.90;2.95;;;;;;;13.25;81.26;99517.53;4967565;28;98326;-76
2023/11/14 01:24:11;;;;;;;20.20;2.78;;;;;;;13.23;81.43;99516.78;4970811;28;99411;-77
2023/11/14 01:26:37;;;;;;;22.13;2.90;;;;;;;13.28;81.00;99514.66;4971208;28;98923;-75
2023/11/14 01:29:05;;;;;;;19.00;3.03;;;;;;;13.09;82.00;99513.19;4964748;28;97096;-76
2023/11/14 01:31:32;;;;;;;21.08;3.08;;;;;;;13.37;80.46;99508.75;4967155;28;98345;-75
2023/11/14 01:33:59;;;;;;;20.33;2.53;;;;;;;13.42;79.93;99518.09;4969453;28;98927;-75
2023/11/14 01:36:25;;;;;;;21.05;2.40;;;;;;;13.25;80.44;99509.56;4974058;28;99193;-74
2023/11/14 01:38:52;;;;;;;21.88;2.75;;;;;;;13.14;81.04;99497.84;4978617;28;97634;-75
2023/11/14 01:41:18;;;;;;;18.35;3.50;;;;;;;13.19;80.34;99489.63;4969390;28;98639;-76
2023/11/14 01:43:45;;;;;;;22.80;3.40;;;;;;;13.30;80.50;99487.09;4970784;28;98860;-71
2023/11/14 01:46:15;;;;;;;14.15;2.53;;;;;;;13.23;80.22;99487.59;4963032;28;101362;-70
2023/11/14 01:48:42;;;;;;;16.10;2.33;;;;;;;13.19;80.15;99500.22;4967336;28;97444;-71
2023/11/14 01:51:08;;;;;;;22.23;2.90;;;;;;;12.99;81.15;99495.34;4975720;28;96786;-71
2023/11/14 01:53:35;;;;;;;26.55;2.70;;;;;;;13.28;79.81;99491.63;4967156;28;97795;-71
2023/11/14 01:56:01;;;;;;;15.75;3.15;;;;;;;13.18;79.33;99497.66;4965747;28;98679;-71
2023/11/14 01:58:28;;;;;;;15.43;3.10;;;;;;;13.21;79.47;99500.94;4963543;28;97102;-71
2023/11/14 02:00:55;;;;;;;19.42;2.80;;;;;;;13.22;79.58;99505.31;4969851;28;96752;-71
2023/11/14 02:03:23;;;;;;;19.65;2.40;;;;;;;13.09;79.76;99507.88;4968373;28;98828;-71
2023/11/14 02:05:50;;;;;;;22.17;2.92;;;;;;;13.01;80.41;99510.16;4974011;28;98957;-74
2023/11/14 02:08:17;;;;;;;21.42;3.20;;;;;;;13.19;79.44;99518.78;4980349;28;97226;-74
2023/11/14 02:10:43;;;;;;;25.05;3.17;;;;;;;12.95;80.39;99525.63;4976684;28;96834;-74
2023/11/14 02:13:09;;;;;;;24.30;3.22;;;;;;;12.94;80.40;99522.13;4963512;28;98871;-74
2023/11/14 02:15:36;;;;;;;28.75;3.38;;;;;;;13.11;79.70;99519.25;4978783;28;100750;-74
2023/11/14 02:18:02;;;;;;;15.25;2.40;;;;;;;12.91;79.79;99518.84;4975759;28;96787;-73
2023/11/14 02:20:30;;;;;;;21.80;2.90;;;;;;;13.04;79.26;99519.75;4971123;28;96904;-73
2023/11/14 02:22:58;;;;;;;25.98;3.00;;;;;;;13.10;78.66;99520.19;4973687;28;101984;-73
2023/11/14 02:25:25;;;;;;;17.20;3.03;;;;;;;13.04;78.60;99509.13;4980221;28;99463;-73
2023/11/14 02:27:52;;;;;;;26.40;3.80;;;;;;;12.97;78.75;99516.63;4975677;28;96857;-72
2023/11/14 02:30:18;;;;;;;18.02;3.53;;;;;;;12.86;78.94;99515.63;4983965;28;99805;-72
2023/11/14 02:32:45;;;;;;;27.33;3.10;;;;;;;12.98;78.92;99517.50;4972811;28;99092;-72
2023/11/14 02:35:11;;;;;;;26.05;3.90;;;;;;;13.04;78.14;99512.66;4977664;28;99109;-72
2023/11/14 02:37:38;;;;;;;18.25;2.75;;;;;;;13.26;77.18;99514.75;4978279;28;97840;-71
2023/11/14 02:40:05;;;;;;;20.92;3.28;;;;;;;13.32;76.62;99518.84;4969983;28;96877;-71
2023/11/14 02:42:32;;;;;;;20.48;2.50;;;;;;;13.10;76.76;99509.59;4971984;28;98771;-72
2023/11/14 02:44:59;;;;;;;21.65;3.25;;;;;;;13.23;76.66;99508.81;4979540;28;98787;-72
2023/11/14 02:47:26;;;;;;;21.80;3.10;;;;;;;13.01;77.32;99507.53;4973996;28;96861;-72
2023/11/14 02:49:58;;;;;;;22.65;2.80;;;;;;;13.30;76.20;99496.84;4979890;28;96756;-72
2023/11/14 02:52:25;;;;;;;21.85;3.58;;;;;;;13.23;76.12;99501.72;4972373;28;99097;-72
2023/11/14 02:54:51;;;;;;;26.20;3.58;;;;;;;13.16;76.07;99498.59;4978715;28;98771;-72
2023/11/14 02:57:18;;;;;;;16.05;3.00;;;;;;;13.23;75.87;99504.34;4980702;28;96745;-72
2023/11/14 02:59:47;;;;;;;25.90;3.80;;;;;;;13.10;76.24;99501.63;4974684;28;96850;-72
2023/11/14 03:02:13;;;;;;;20.75;3.17;;;;;;;13.33;75.70;99493.97;4972742;28;99276;-72
2023/11/14 03:04:40;;;;;;;25.05;2.92;;;;;;;13.44;75.01;99502.09;4973753;28;98367;-71
2023/11/14 03:07:06;;;;;;;20.05;3.63;;;;;;;13.40;74.64;99505.88;4968150;28;96743;-71
2023/11/14 03:09:33;;;;;;;18.73;3.50;;;;;;;13.49;74.47;99507.94;4972017;28;98191;-71
2023/11/14 03:12:00;;;;;;;27.55;3.63;;;;;;;13.44;74.58;99512.72;4967940;28;99194;-77
2023/11/14 03:14:27;;;;;;;28.20;3.22;;;;;;;13.55;73.36;99504.88;4967091;28;97611;-76
2023/11/14 03:16:54;;;;;;;17.10;2.80;;;;;;;13.60;73.22;99501.91;4969624;28;96803;-77
2023/11/14 03:19:21;;;;;;;20.52;3.20;;;;;;;13.59;72.84;99498.38;4961777;28;96782;-77
2023/11/14 03:21:48;;;;;;;17.33;3.63;;;;;;;13.56;72.44;99498.63;4969123;28;98860;-77
2023/11/14 03:24:14;;;;;;;15.55;2.75;;;;;;;13.80;72.46;99501.41;4965559;28;99391;-77
2023/11/14 03:26:40;;;;;;;18.95;3.00;;;;;;;13.94;71.84;99518.09;4959141;28;96904;-77
2023/11/14 03:29:10;;;;;;;16.60;2.95;;;;;;;13.90;71.19;99505.13;4964110;28;96857;-76
2023/11/14 03:31:36;;;;;;;16.13;2.35;;;;;;;13.90;71.69;99511.31;4968732;28;99381;-77
2023/11/14 03:34:05;;;;;;;16.20;2.63;;;;;;;13.81;72.37;99519.88;4962023;28;102213;-76
2023/11/14 03:36:31;;;;;;;17.17;2.65;;;;;;;13.84;72.52;99518.84;4960889;28;97060;-76
2023/11/14 03:38:57;;;;;;;18.98;2.42;;;;;;;13.90;72.30;99515.75;4968694;28;96940;-76
2023/11/14 03:41:24;;;;;;;18.38;3.13;;;;;;;13.72;72.42;99523.16;4970252;28;97780;-76
2023/11/14 03:43:50;;;;;;;20.95;3.40;;;;;;;13.86;71.92;99531.03;4970235;28;99060;-76
2023/11/14 03:46:16;;;;;;;20.35;2.78;;;;;;;13.66;72.35;99526.22;4968300;28;96743;-76
2023/11/14 03:48:43;;;;;;;18.15;2.88;;;;;;;13.80;72.01;99528.78;4972205;28;96700;-76
2023/11/14 03:51:10;;;;;;;17.10;3.38;;;;;;;13.65;72.58;99521.91;4968628;28;99380;-76
2023/11/14 03:53:37;;;;;;;21.95;2.92;;;;;;;13.74;72.40;99529.22;4969629;28;98742;-76
2023/11/14 03:56:04;;;;;;;19.65;3.45;;;;;;;13.77;72.24;99521.06;4969598;28;97138;-76
2023/11/14 03:58:31;;;;;;;16.85;2.75;;;;;;;13.92;71.86;99519.13;4971938;28;97124;-76
2023/11/14 04:00:57;;;;;;;22.02;2.80;;;;;;;13.69;72.88;99522.53;4969843;28;99381;-76
2023/11/14 04:03:23;;;;;;;15.80;2.42;;;;;;;13.82;73.14;99512.78;4968588;28;98121;-76
2023/11/14 04:05:50;;;;;;;13.57;2.45;;;;;;;13.81;73.46;99506.59;4967870;28;98013;-76
2023/11/14 04:08:18;;;;;;;16.77;2.38;;;;;;;13.87;72.92;99516.81;4967057;28;99806;-76
2023/11/14 04:10:44;;;;;;;22.05;3.10;;;;;;;13.78;74.07;99517.47;4969902;28;97861;-76
2023/11/14 04:13:10;;;;;;;11.68;2.38;;;;;;;13.61;74.76;99519.53;4960950;28;98231;-76
2023/11/14 04:15:37;;;;;;;13.20;2.13;;;;;;;13.72;74.49;99507.22;4962019;28;97205;-76
2023/11/14 04:18:03;;;;;;;20.15;2.92;;;;;;;13.82;73.79;99521.59;4965158;28;98085;-76
2023/11/14 04:20:29;;;;;;;17.88;2.63;;;;;;;13.60;74.31;99517.81;4960011;28;98874;-76
2023/11/14 04:22:56;;;;;;;16.23;2.55;;;;;;;13.60;75.05;99523.13;4963305;28;102420;-75
2023/11/14 04:25:23;;;;;;;15.40;2.88;;;;;;;13.60;74.63;99523.13;4968288;28;96715;-75
2023/11/14 04:27:50;;;;;;;17.05;3.05;;;;;;;13.61;74.69;99520.38;4970154;28;97889;-75
2023/11/14 04:30:16;;;;;;;21.98;3.78;;;;;;;13.80;73.67;99514.66;4966930;28;98944;-76
2023/11/14 04:32:43;;;;;;;13.27;2.35;;;;;;;14.08;72.58;99524.25;4975062;28;98790;-75
2023/11/14 04:35:10;;;;;;;20.92;2.92;;;;;;;13.88;72.56;99517.66;4967867;28;96705;-75
2023/11/14 04:37:36;;;;;;;13.52;2.45;;;;;;;13.87;72.88;99518.59;4964811;28;97607;-76
2023/11/14 04:40:05;;;;;;;12.02;2.80;;;;;;;14.06;71.92;99516.38;4973197;28;100219;-75
2023/11/14 04:42:33;;;;;;;18.88;2.75;;;;;;;13.95;72.10;99508.31;4967504;28;99273;-75
2023/11/14 04:44:59;;;;;;;21.40;2.45;;;;;;;14.03;71.35;99516.63;4960213;28;96968;-75
2023/11/14 04:47:25;;;;;;;10.27;1.88;;;;;;;13.81;72.08;99509.25;4965860;28;96908;-77
2023/11/14 04:49:52;;;;;;;24.10;2.35;;;;;;;13.91;72.15;99509.50;4970716;28;98804;-77
2023/11/14 04:52:18;;;;;;;16.80;2.47;;;;;;;13.89;71.35;99522.88;4971976;28;101678;-77
2023/11/14 04:54:45;;;;;;;15.60;2.85;;;;;;;14.11;70.55;99524.88;4966719;28;97218;-76
2023/11/14 04:57:12;;;;;;;22.35;2.63;;;;;;;14.10;70.39;99528.53;4965458;28;96733;-76
2023/11/14 04:59:39;;;;;;;21.50;2.80;;;;;;;14.01;70.84;99520.31;4970399;28;99724;-76
2023/11/14 05:02:06;;;;;;;17.17;2.70;;;;;;;14.11;69.81;99521.41;4969043;28;99235;-76
2023/11/14 05:04:33;;;;;;;18.30;2.30;;;;;;;14.03;70.65;99523.72;4968272;28;96878;-76
2023/11/14 05:06:59;;;;;;;15.45;2.35;;;;;;;14.25;69.65;99515.97;4960214;28;96830;-76
2023/11/14 05:09:25;;;;;;;20.20;3.03;;;;;;;14.10;69.57;99509.94;4964137;28;96901;-76
2023/11/14 05:11:52;;;;;;;17.63;2.40;;;;;;;14.34;69.14;99510.00;4966822;28;98772;-77
2023/11/14 05:14:18;;;;;;;9.20;1.77;;;;;;;14.33;68.66;99508.31;4962543;28;97427;-77
2023/11/14 05:16:46;;;;;;;32.40;3.60;;;;;;;14.38;68.66;99510.66;4965987;28;96868;-76
2023/11/14 05:19:13;;;;;;;17.15;3.20;;;;;;;14.32;68.41;99509.25;4968493;28;98910;-76
2023/11/14 05:21:39;;;;;;;17.73;2.20;;;;;;;14.44;68.21;99505.75;4969814;28;97529;-76
2023/11/14 05:24:07;;;;;;;20.83;2.63;;;;;;;14.39;68.54;99502.59;4966722;28;97148;-77
2023/11/14 05:26:33;;;;;;;16.75;2.35;;;;;;;14.35;68.19;99499.28;4969149;28;98435;-76
2023/11/14 05:29:00;;;;;;;15.15;2.40;;;;;;;14.33;68.78;99492.38;4959741;28;98794;-76
2023/11/14 05:31:26;;;;;;;14.57;2.10;;;;;;;14.55;67.71;99500.56;4967546;28;98871;-77
2023/11/14 05:33:54;;;;;;;13.45;1.70;;;;;;;14.35;67.88;99493.13;4966980;28;96761;-77
2023/11/14 05:36:20;;;;;;;17.77;2.22;;;;;;;14.25;68.91;99494.69;4961738;28;96772;-78
2023/11/14 05:38:47;;;;;;;15.85;2.70;;;;;;;14.44;67.91;99495.13;4960084;28;101648;-77
2023/11/14 05:41:14;;;;;;;16.10;2.75;;;;;;;14.26;68.45;99488.44;4969316;28;97918;-78
2023/11/14 05:43:40;;;;;;;16.88;2.92;;;;;;;14.51;67.53;99490.22;4964501;28;96717;-78
2023/11/14 05:46:07;;;;;;;12.80;2.55;;;;;;;14.41;67.58;99495.38;4962751;28;97214;-77
2023/11/14 05:48:33;;;;;;;21.25;2.92;;;;;;;14.11;68.37;99489.53;4970023;28;99226;-77
2023/11/14 05:51:01;;;;;;;17.83;2.00;;;;;;;14.13;67.99;99490.25;4968216;28;99027;-78
2023/11/14 05:53:27;;;;;;;18.63;2.90;;;;;;;14.24;67.77;99487.72;4974089;28;96799;-78
2023/11/14 05:55:54;;;;;;;15.85;2.42;;;;;;;14.26;68.21;99476.00;4971395;28;98618;-78
2023/11/14 05:58:20;;;;;;;22.73;3.00;;;;;;;14.32;67.51;99469.41;4965635;28;98275;-76
2023/11/14 06:00:47;;;;;;;16.23;2.42;;;;;;;14.55;66.84;99479.28;4963299;28;97540;-75
2023/11/14 06:03:14;;;;;;;22.92;3.58;;;;;;;14.54;66.44;99501.50;4963695;28;97704;-77
2023/11/14 06:05:41;;;;;;;16.08;2.95;;;;;;;14.51;65.99;99485.78;4965509;28;96906;-75
2023/11/14 06:08:09;;;;;;;11.55;1.73;;;;;;;14.33;67.04;99487.03;4971809;28;99940;-77
2023/11/14 06:10:36;;;;;;;18.65;2.75;;;;;;;14.26;67.60;99486.63;4967620;28;99141;-77
2023/11/14 06:13:03;;;;;;;19.20;3.15;;;;;;;14.37;67.26;99488.56;4973877;28;97152;-76
2023/11/14 06:15:30;;;;;;;18.30;2.15;;;;;;;14.40;66.63;99483.03;4971734;28;96782;-75
2023/11/14 06:17:56;;;;;;;18.50;2.65;;;;;;;14.62;66.41;99477.91;4965345;28;100343;-76
2023/11/14 06:20:23;;;;;;;18.42;2.30;;;;;;;14.24;67.61;99477.09;4966456;28;99432;-76
2023/11/14 06:22:50;;;;;;;19.17;3.38;;;;;;;14.26;67.65;99481.31;4967781;28;97578;-76
2023/11/14 06:25:18;;;;;;;13.65;2.30;;;;;;;14.31;67.64;99484.50;4965289;28;97091;-75
2023/11/14 06:27:44;;;;;;;20.15;2.15;;;;;;;14.41;67.06;99489.19;4966942;28;99351;-75
2023/11/14 06:30:11;;;;;;;13.50;3.00;;;;;;;14.42;67.17;99493.56;4961522;28;98766;-76
2023/11/14 06:32:38;;;;;;;17.27;2.40;;;;;;;14.33;66.98;99485.25;4969046;28;97167;-76
2023/11/14 06:35:05;;;;;;;20.92;3.05;;;;;;;14.42;66.90;99486.44;4961177;28;97018;-76
2023/11/14 06:37:31;;;;;;;14.68;2.95;;;;;;;14.51;66.53;99491.09;4966820;28;98866;-77
2023/11/14 06:39:58;;;;;;;14.82;2.60;;;;;;;14.56;66.16;99499.59;4969349;28;99196;-76
2023/11/14 06:42:26;;;;;;;18.95;2.97;;;;;;;14.28;67.33;99499.81;4967118;28;97634;-75
2023/11/14 06:44:52;;;;;;;17.80;2.38;;;;;;;14.61;66.28;99493.94;4968828;28;98847;-75
2023/11/14 06:47:19;;;;;;;21.20;3.05;;;;;;;14.50;66.67;99489.41;4965759;28;98981;-76
2023/11/14 06:49:45;;;;;;;15.80;2.05;;;;;;;14.53;66.25;99499.81;4967405;28;98691;-76
2023/11/14 06:52:12;;;;;;;16.42;3.63;;;;;;;14.56;66.29;99504.06;4966554;28;98979;-76
2023/11/14 06:54:39;;;;;;;20.55;3.28;;;;;;;14.55;66.38;99487.28;4968031;28;97437;-76
2023/11/14 06:57:07;;;;;;;13.00;2.72;;;;;;;14.61;65.87;99492.16;4962973;28;99305;-72
2023/11/14 06:59:35;;;;;;;16.63;2.78;;;;;;;14.75;65.46;99488.50;4959196;28;100032;-72
2023/11/14 07:02:05;;;;;;;17.50;3.38;;;;;;;14.68;65.56;99489.91;4962635;28;96920;-73
2023/11/14 07:04:32;;;;;;;15.68;2.42;;;;;;;14.73;65.24;99491.25;4956224;28;96947;-73
2023/11/14 07:06:59;;;;;;;18.42;3.17;;;;;;;14.83;64.74;99490.59;4963182;28;100212;-73
2023/11/14 07:09:25;;;;;;;11.10;2.63;;;;;;;14.71;64.71;99487.84;4958818;28;98029;-76
2023/11/14 07:11:54;;;;;;;20.23;2.47;;;;;;;14.50;65.21;99497.38;4969057;28;96840;-76
2023/11/14 07:14:22;;;;;;;22.38;3.90;;;;;;;14.73;64.87;99493.06;4969509;28;96852;-77
2023/11/14 07:16:50;;;;;;;14.50;2.28;;;;;;;14.91;64.09;99493.53;4967012;28;101929;-76
2023/11/14 07:19:16;;;;;;;12.73;3.05;;;;;;;14.94;63.42;99488.00;4980242;28;99300;-77
2023/11/14 07:21:45;;;;;;;16.42;2.72;;;;;;;14.44;65.70;99499.63;4979407;28;97252;-77
2023/11/14 07:24:12;;;;;;;16.95;2.47;;;;;;;14.57;65.09;99498.63;4963862;28;98649;-77
2023/11/14 07:26:38;;;;;;;21.02;3.03;;;;;;;14.61;65.55;99508.09;4965466;28;100662;-73
2023/11/14 07:29:05;;;;;;;19.60;2.97;;;;;;;14.81;64.06;99508.47;4968119;28;97647;-76
2023/11/14 07:31:32;;;;;;;21.80;3.28;;;;;;;15.04;63.26;99491.66;4962988;28;96796;-76
2023/11/14 07:33:59;;;;;;;13.98;2.50;;;;;;;15.17;62.75;99516.41;4968982;28;100230;-76
2023/11/14 07:36:26;;;;;;;18.38;2.83;;;;;;;15.11;62.60;99501.75;4966264;28;98119;-77
2023/11/14 07:38:53;;;;;;;23.58;3.20;;;;;;;15.18;62.40;99501.28;4966068;28;98759;-77
2023/11/14 07:41:20;;;;;;;13.07;3.08;;;;;;;15.31;62.08;99502.94;4969731;28;96807;-77
2023/11/14 07:43:46;;;;;;;16.17;3.33;;;;;;;15.21;62.53;99499.28;4974225;28;96715;-77
2023/11/14 07:46:13;;;;;;;16.33;2.60;;;;;;;15.27;62.13;99500.63;4966735;28;102267;-76
2023/11/14 07:48:39;;;;;;;21.00;3.10;;;;;;;15.08;62.47;99502.00;4966080;28;98757;-79
2023/11/14 07:51:07;;;;;;;18.55;2.92;;;;;;;14.95;63.45;99503.84;4961696;28;98607;-79
2023/11/14 07:53:33;;;;;;;15.00;2.72;;;;;;;14.99;62.86;99501.81;4959819;28;97240;-78
2023/11/14 07:56:00;;;;;;;20.10;2.83;;;;;;;15.02;63.42;99513.09;4965835;28;98886;-78
2023/11/14 07:58:29;;;;;;;14.35;2.83;;;;;;;14.98;63.59;99508.94;4959791;28;100743;-77
2023/11/14 08:00:56;;;;;;;14.30;2.35;;;;;;;15.15;62.79;99513.03;4955182;28;98703;-76
2023/11/14 08:03:22;;;;;;;13.13;2.33;;;;;;;15.35;61.97;99503.56;4959786;28;96939;-78
2023/11/14 08:05:49;;;;;;;17.88;2.72;;;;;;;15.09;62.71;99503.69;4962582;28;99423;-77
2023/11/14 08:08:17;;;;;;;17.02;2.17;;;;;;;15.49;61.82;99506.88;4962738;28;97732;-77
2023/11/14 08:10:44;;;;;;;19.67;3.30;;;;;;;15.33;62.22;99514.31;4963526;28;96726;-78
2023/11/14 08:13:11;;;;;;;20.85;2.40;;;;;;;14.80;63.81;99509.41;4969403;28;98403;-77
2023/11/14 08:15:37;;;;;;;13.82;2.17;;;;;;;14.93;64.19;99505.75;4963305;28;98894;-77
2023/11/14 08:18:05;;;;;;;17.98;2.28;;;;;;;15.35;63.01;99520.41;4967886;28;99761;-78
2023/11/14 08:20:32;;;;;;;22.65;2.95;;;;;;;14.88;64.10;99499.94;4960838;28;97850;-77
2023/11/14 08:23:00;;;;;;;12.98;1.67;;;;;;;14.97;64.58;99507.22;4967910;28;98464;-73
2023/11/14 08:25:28;;;;;;;13.77;2.53;;;;;;;14.95;64.31;99505.66;4971374;28;99262;-78
2023/11/14 08:27:55;;;;;;;35.50;2.55;;;;;;;15.08;63.85;99509.97;4965662;28;98917;-73
2023/11/14 08:30:21;;;;;;;16.17;2.17;;;;;;;15.05;64.39;99506.66;4965978;28;96831;-78
2023/11/14 08:32:57;;;;;;;15.45;2.47;;;;;;;15.10;64.12;99512.50;4969590;28;96819;-77
2023/11/14 08:35:25;;;;;;;19.63;3.22;;;;;;;15.00;64.34;99509.69;4959546;28;98800;-76
2023/11/14 08:37:51;;;;;;;12.30;2.08;;;;;;;15.02;64.54;99505.09;4966911;28;100737;-78
2023/11/14 08:40:21;;;;;;;;;;;;;;;15.11;64.04;99509.72;4966974;28;97220;-77
2023/11/14 08:42:51;;;;;;;18.27;2.67;;;;;;;15.21;64.01;99506.41;4963084;28;98018;-75
2023/11/14 08:45:18;;;;;;;18.27;2.50;;;;;;;15.76;62.20;99513.78;4966556;28;98939;-75
2023/11/14 08:47:52;;;;;;;16.40;2.20;;;;;;;15.38;62.59;99527.28;4964173;28;102195;-71
2023/11/14 08:50:19;;;;;;;16.48;3.05;;;;;;;15.43;62.85;99517.13;4964108;28;96999;-78
2023/11/14 08:52:46;;;;;;;14.23;2.20;;;;;;;15.11;64.22;99516.84;4967632;28;97197;-77
2023/11/14 08:55:14;;;;;;;20.05;2.63;;;;;;;15.10;63.83;99521.34;4967904;28;99079;-80
2023/11/14 08:57:40;;;;;;;13.35;2.50;;;;;;;15.21;63.67;99522.38;4968446;28;98005;-79
2023/11/14 09:00:10;;;;;;;16.13;2.22;;;;;;;15.48;62.60;99510.53;4967423;28;96743;-79
2023/11/14 09:02:36;;;;;;;21.95;3.55;;;;;;;15.89;61.12;99520.72;4961116;28;98372;-78
2023/11/14 09:05:03;;;;;;;20.30;2.65;;;;;;;15.70;61.40;99525.75;4971340;28;101639;-78
2023/11/14 09:07:30;;;;;;;18.15;2.22;;;;;;;15.69;61.51;99517.88;4967240;28;99054;-78
2023/11/14 09:09:56;;;;;;;10.35;2.50;;;;;;;15.39;62.23;99516.53;4969046;28;97330;-78
2023/11/14 09:12:23;;;;;;;12.55;2.38;;;;;;;15.02;63.34;99513.09;4969765;28;97193;-74
2023/11/14 09:14:50;;;;;;;13.52;3.15;;;;;;;15.30;63.05;99533.16;4970613;28;98406;-73
2023/11/14 09:17:18;;;;;;;14.20;2.53;;;;;;;14.96;63.81;99536.63;4971890;28;97704;-78
2023/11/14 09:19:46;;;;;;;17.13;2.47;;;;;;;15.06;63.73;99524.34;4967994;28;100543;-78
2023/11/14 09:22:12;;;;;;;23.17;2.90;;;;;;;15.35;62.51;99523.06;4966906;28;96980;-78
2023/11/14 09:24:39;;;;;;;14.90;2.58;;;;;;;15.31;63.18;99526.88;4967452;28;99359;-78
2023/11/14 09:27:05;;;;;;;20.33;3.67;;;;;;;15.50;62.07;99529.88;4967623;28;100244;-78
2023/11/14 09:29:32;;;;;;;14.45;3.40;;;;;;;15.28;62.76;99527.13;4970487;28;97266;-79
2023/11/14 09:31:59;;;;;;;20.13;3.22;;;;;;;15.66;61.47;99516.31;4973350;28;96918;-78
2023/11/14 09:34:27;;;;;;;25.23;2.78;;;;;;;15.49;61.63;99532.69;4968083;28;98881;-77
2023/11/14 09:36:53;;;;;;;22.80;3.08;;;;;;;15.44;62.45;99513.50;4967667;28;99285;-76
2023/11/14 09:39:24;;;;;;;17.10;2.63;;;;;;;15.13;63.48;99514.94;4969662;28;97414;-75
2023/11/14 09:41:51;;;;;;;19.90;2.40;;;;;;;15.44;62.36;99500.19;4966784;28;97240;-73
2023/11/14 09:44:17;;;;;;;16.02;3.35;;;;;;;15.72;61.24;99520.31;4971338;28;98958;-72
2023/11/14 09:46:48;;;;;;;16.10;2.75;;;;;;;15.92;60.68;99514.31;4969260;28;97843;-73
2023/11/14 09:49:15;;;;;;;17.42;2.45;;;;;;;16.17;59.83;99524.78;4972799;28;97353;-73
2023/11/14 09:51:45;;;;;;;16.60;3.00;;;;;;;15.99;60.03;99515.53;4970958;28;97022;-76
2023/11/14 09:54:13;;;;;;;11.23;2.17;;;;;;;15.66;60.78;99496.81;4971483;28;99190;-76
2023/11/14 09:56:40;;;;;;;20.65;2.90;;;;;;;16.04;60.06;99497.38;4967769;28;99108;-76
2023/11/14 09:59:08;;;;;;;17.88;3.38;;;;;;;16.32;58.58;99490.75;4971714;28;96802;-77
2023/11/14 10:01:34;;;;;;;21.23;3.13;;;;;;;16.32;58.55;99488.09;4966458;28;96919;-75
2023/11/14 10:04:02;;;;;;;20.88;2.53;;;;;;;15.89;60.16;99494.06;4965571;28;99158;-74
2023/11/14 10:06:29;;;;;;;15.93;2.38;;;;;;;15.86;60.74;99504.97;4969132;28;98813;-75
2023/11/14 10:08:59;;;;;;;15.02;2.90;;;;;;;15.72;60.77;99515.00;4970283;28;97016;-76
2023/11/14 10:11:40;;;;;;;13.82;2.58;;;;;;;15.72;60.97;99512.31;4970130;28;97397;-75
2023/11/14 10:14:07;;;;;;;17.27;2.15;;;;;;;15.39;62.66;99505.03;4969772;28;99182;-76
2023/11/14 10:16:32;;;;;;;18.58;2.42;;;;;;;15.82;61.43;99516.81;4969525;28;98161;-77
2023/11/14 10:18:58;;;;;;;;;;;;;;;15.93;60.66;99500.88;4972484;28;97942;-75
2023/11/14 10:21:27;;;;;;;19.55;2.75;;;;;;;16.09;59.91;99531.66;4972078;28;97164;-76
2023/11/14 10:23:55;;;;;;;18.23;2.80;;;;;;;15.84;61.03;99516.72;4971200;28;98301;-75
2023/11/14 10:26:23;;;;;;;21.48;2.72;;;;;;;15.97;60.71;99509.47;4968335;28;99132;-76
2023/11/14 10:28:54;;;;;;;17.35;2.63;;;;;;;15.84;61.19;99508.72;4970678;28;97204;-76
2023/11/14 10:31:45;;;;;;;17.92;2.25;;;;;;;16.28;59.96;99507.94;4966529;28;97346;-72
2023/11/14 10:34:25;;;;;;;18.20;2.70;;;;;;;16.12;60.31;99500.31;4956935;28;99362;-75
2023/11/14 10:36:52;;;;;;;17.13;2.50;;;;;;;16.23;59.83;99508.31;4962400;28;98855;-76
2023/11/14 10:39:18;;;;;;;13.65;2.33;;;;;;;16.55;58.80;99496.91;4967224;28;98917;-76
2023/11/14 10:41:48;;;;;;;14.25;3.22;;;;;;;16.50;58.75;99499.09;4962754;28;97262;-76
2023/11/14 10:44:15;;;;;;;18.55;2.58;;;;;;;16.71;58.30;99497.44;4969722;28;99296;-76
2023/11/14 10:47:02;;;;;;;13.20;2.67;;;;;;;17.16;56.27;99497.31;4963706;28;98784;-75
2023/11/14 10:49:30;;;;;;;13.52;2.30;;;;;;;17.25;55.79;99501.91;4969186;28;98848;-76
2023/11/14 10:51:57;;;;;;;19.48;2.60;;;;;;;16.82;56.93;99488.53;4967786;28;96925;-73
2023/11/14 10:54:25;;;;;;;15.07;2.72;;;;;;;16.86;56.67;99500.69;4968818;28;98955;-72
2023/11/14 10:56:53;;;;;;;12.52;3.05;;;;;;;16.41;57.95;99491.84;4966501;28;98795;-72
2023/11/14 10:59:19;;;;;;;16.50;2.42;;;;;;;16.38;58.72;99497.41;4966388;28;96759;-75
2023/11/14 11:01:50;;;;;;;15.75;2.97;;;;;;;16.65;57.66;99493.44;4969508;28;96805;-73
2023/11/14 11:04:24;;;;;;;19.50;3.08;;;;;;;16.55;57.40;99492.41;4961838;28;97949;-74
2023/11/14 11:06:50;;;;;;;14.45;2.35;;;;;;;16.43;58.35;99504.06;4965541;28;99485;-73
2023/11/14 11:09:19;;;;;;;14.48;2.40;;;;;;;16.57;57.67;99494.97;4967960;28;96891;-73
2023/11/14 11:11:51;;;;;;;14.13;2.40;;;;;;;17.01;56.83;99497.59;4967128;28;98607;-73
2023/11/14 11:14:22;;;;;;;12.80;2.58;;;;;;;16.92;56.30;99484.16;4970297;28;98357;-75
2023/11/14 11:16:51;;;;;;;16.77;3.03;;;;;;;17.03;56.24;99500.16;4971226;28;99709;-76
2023/11/14 11:19:25;;;;;;;17.45;2.67;;;;;;;16.75;56.79;99496.19;4968741;28;97271;-75
2023/11/14 11:22:04;;;;;;;14.77;2.45;;;;;;;16.91;56.87;99499.34;4969980;28;97010;-75
2023/11/14 11:24:31;;;;;;;14.60;2.88;;;;;;;16.70;56.95;99498.38;4969023;28;101585;-75